createdAt,value
2017-05-13T04:01:04.750Z,21.3
2017-05-13T04:01:30.671Z,21.27
2017-05-13T04:01:56.143Z,21.3
2017-05-13T04:02:21.704Z,21.32
2017-05-13T04:02:47.314Z,21.36
2017-05-13T04:03:12.890Z,21.35
2017-05-13T04:03:38.440Z,21.32
2017-05-13T04:04:04.121Z,21.34
2017-05-13T04:04:29.762Z,21.34
2017-05-13T04:04:55.322Z,21.35
2017-05-13T04:05:20.874Z,21.35
2017-05-13T04:05:46.442Z,21.35
2017-05-13T04:06:12.056Z,21.35
2017-05-13T04:06:37.650Z,21.34
2017-05-13T04:07:03.222Z,21.36
2017-05-13T04:07:28.943Z,21.3
2017-05-13T04:07:55.194Z,21.36
2017-05-13T04:08:20.748Z,21.35
2017-05-13T04:08:46.304Z,21.27
2017-05-13T04:09:11.872Z,21.34
2017-05-13T04:09:37.453Z,21.35
2017-05-13T04:10:03.005Z,21.3
2017-05-13T04:10:28.619Z,21.36
2017-05-13T04:10:54.181Z,21.34
2017-05-13T04:11:19.730Z,21.3
2017-05-13T04:11:45.262Z,21.34
2017-05-13T04:12:10.835Z,21.34
2017-05-13T04:12:36.397Z,21.32
2017-05-13T04:13:02.011Z,21.35
2017-05-13T04:13:27.632Z,21.36
2017-05-13T04:13:53.211Z,21.36
2017-05-13T04:14:18.837Z,21.3
2017-05-13T04:14:44.413Z,21.27
2017-05-13T04:15:09.966Z,21.3
2017-05-13T04:15:35.534Z,21.27
2017-05-13T04:16:01.121Z,21.34
2017-05-13T04:16:26.676Z,21.34
2017-05-13T04:16:52.246Z,21.3
2017-05-13T04:17:17.804Z,21.32
2017-05-13T04:17:43.384Z,21.32
2017-05-13T04:18:09.034Z,21.35
2017-05-13T04:18:34.609Z,21.3
2017-05-13T04:19:00.173Z,21.29
2017-05-13T04:19:25.730Z,21.34
2017-05-13T04:19:51.454Z,21.36
2017-05-13T04:20:17.015Z,21.35
2017-05-13T04:20:42.578Z,21.36
2017-05-13T04:21:08.122Z,21.32
2017-05-13T04:21:33.784Z,21.3
2017-05-13T04:21:59.333Z,21.29
2017-05-13T04:22:25.007Z,21.35
2017-05-13T04:22:50.568Z,21.32
2017-05-13T04:23:16.126Z,21.32
2017-05-13T04:23:41.678Z,21.32
2017-05-13T04:24:07.220Z,21.35
2017-05-13T04:24:32.768Z,21.34
2017-05-13T04:24:58.363Z,21.35
2017-05-13T04:25:23.922Z,21.35
2017-05-13T04:25:49.482Z,21.34
2017-05-13T04:26:15.049Z,21.29
2017-05-13T04:26:40.633Z,21.29
2017-05-13T04:27:06.299Z,21.29
2017-05-13T04:27:31.871Z,21.34
2017-05-13T04:27:57.450Z,21.35
2017-05-13T04:28:23.026Z,21.3
2017-05-13T04:28:48.575Z,21.3
2017-05-13T04:29:14.161Z,21.34
2017-05-13T04:29:39.728Z,21.26
2017-05-13T04:30:05.303Z,21.34
2017-05-13T04:30:30.864Z,21.35
2017-05-13T04:30:56.433Z,21.26
2017-05-13T04:31:21.999Z,21.26
2017-05-13T04:31:47.752Z,21.29
2017-05-13T04:32:13.328Z,21.3
2017-05-13T04:32:38.884Z,21.3
2017-05-13T04:33:04.526Z,21.34
2017-05-13T04:33:30.092Z,21.27
2017-05-13T04:33:55.674Z,21.27
2017-05-13T04:34:21.294Z,21.32
2017-05-13T04:34:46.853Z,21.29
2017-05-13T04:35:12.419Z,21.26
2017-05-13T04:35:38.006Z,21.27
2017-05-13T04:36:03.567Z,21.29
2017-05-13T04:36:29.145Z,21.3
2017-05-13T04:36:54.757Z,21.29
2017-05-13T04:37:20.323Z,21.26
2017-05-13T04:37:45.879Z,21.24
2017-05-13T04:38:11.439Z,21.34
2017-05-13T04:38:37.007Z,21.27
2017-05-13T04:39:02.621Z,21.3
2017-05-13T04:39:28.156Z,21.35
2017-05-13T04:39:53.713Z,21.27
2017-05-13T04:40:19.346Z,21.35
2017-05-13T04:41:07.517Z,21.34
2017-05-13T04:41:33.088Z,21.34
2017-05-13T04:41:58.678Z,21.3
2017-05-13T04:42:24.255Z,21.24
2017-05-13T04:42:49.872Z,21.3
2017-05-13T04:43:15.392Z,21.34
2017-05-13T04:43:40.972Z,21.32
2017-05-13T04:44:06.541Z,21.32
2017-05-13T04:44:32.113Z,21.32
2017-05-13T04:44:57.673Z,21.34
2017-05-13T04:45:23.230Z,21.26
2017-05-13T04:45:48.782Z,21.27
2017-05-13T04:46:14.344Z,21.26
2017-05-13T04:46:39.973Z,21.29
2017-05-13T04:47:05.533Z,21.3
2017-05-13T04:48:09.064Z,21.29
2017-05-13T04:48:34.714Z,21.34
2017-05-13T04:49:00.281Z,21.32
2017-05-13T04:49:25.850Z,21.27
2017-05-13T04:49:51.398Z,21.27
2017-05-13T04:50:16.957Z,21.29
2017-05-13T04:50:42.533Z,21.29
2017-05-13T04:51:08.099Z,21.29
2017-05-13T04:51:33.659Z,21.3
2017-05-13T04:51:59.221Z,21.24
2017-05-13T04:52:24.783Z,21.3
2017-05-13T04:52:50.332Z,21.26
2017-05-13T04:53:15.929Z,21.32
2017-05-13T04:53:41.549Z,21.29
2017-05-13T04:54:07.101Z,21.32
2017-05-13T04:54:32.658Z,21.32
2017-05-13T04:54:58.310Z,21.3
2017-05-13T04:55:23.881Z,21.24
2017-05-13T04:55:49.458Z,21.34
2017-05-13T04:56:14.996Z,21.32
2017-05-13T04:56:40.570Z,21.3
2017-05-13T04:57:06.133Z,21.35
2017-05-13T04:57:31.699Z,21.3
2017-05-13T04:57:57.247Z,21.35
2017-05-13T04:58:22.916Z,21.32
2017-05-13T04:58:48.503Z,21.3
2017-05-13T04:59:14.066Z,21.29
2017-05-13T04:59:39.616Z,21.29
2017-05-13T05:00:05.280Z,21.27
2017-05-13T05:00:30.808Z,21.29
2017-05-13T05:00:56.341Z,21.36
2017-05-13T05:01:21.910Z,21.26
2017-05-13T05:01:47.483Z,21.32
2017-05-13T05:02:13.063Z,21.34
2017-05-13T05:02:38.691Z,21.29
2017-05-13T05:03:04.270Z,21.35
2017-05-13T05:03:29.841Z,21.3
2017-05-13T05:03:55.481Z,21.34
2017-05-13T05:04:21.050Z,21.35
2017-05-13T05:04:46.609Z,21.24
2017-05-13T05:05:12.182Z,21.27
2017-05-13T05:05:37.866Z,21.3
2017-05-13T05:06:03.433Z,21.34
2017-05-13T05:06:28.999Z,21.3
2017-05-13T05:06:54.549Z,21.26
2017-05-13T05:07:20.088Z,21.34
2017-05-13T05:07:45.650Z,21.29
2017-05-13T05:08:11.207Z,21.26
2017-05-13T05:08:36.783Z,21.3
2017-05-13T05:09:02.344Z,21.3
2017-05-13T05:09:27.922Z,21.27
2017-05-13T05:09:53.488Z,21.29
2017-05-13T05:10:19.047Z,21.24
2017-05-13T05:10:44.592Z,21.3
2017-05-13T05:11:10.189Z,21.34
2017-05-13T05:11:35.810Z,21.24
2017-05-13T05:12:01.377Z,21.29
2017-05-13T05:12:26.929Z,21.26
2017-05-13T05:12:52.490Z,21.3
2017-05-13T05:13:18.113Z,21.23
2017-05-13T05:13:43.672Z,21.34
2017-05-13T05:14:09.227Z,21.3
2017-05-13T05:14:34.802Z,21.24
2017-05-13T05:15:00.372Z,21.27
2017-05-13T05:15:25.942Z,21.27
2017-05-13T05:15:51.512Z,21.27
2017-05-13T05:16:17.179Z,21.27
2017-05-13T05:16:42.753Z,21.23
2017-05-13T05:17:08.312Z,21.24
2017-05-13T05:17:34.000Z,21.24
2017-05-13T05:17:59.602Z,21.27
2017-05-13T05:18:25.183Z,21.3
2017-05-13T05:18:50.756Z,21.24
2017-05-13T05:19:16.322Z,21.26
2017-05-13T05:19:41.889Z,21.29
2017-05-13T05:20:07.453Z,21.27
2017-05-13T05:20:33.005Z,21.24
2017-05-13T05:20:58.572Z,21.27
2017-05-13T05:21:24.171Z,21.21
2017-05-13T05:21:49.756Z,21.26
2017-05-13T05:22:15.323Z,21.21
2017-05-13T05:22:40.909Z,21.23
2017-05-13T05:23:06.601Z,21.26
2017-05-13T05:23:32.192Z,21.26
2017-05-13T05:23:57.760Z,21.24
2017-05-13T05:24:23.398Z,21.21
2017-05-13T05:24:48.950Z,21.29
2017-05-13T05:25:14.508Z,21.23
2017-05-13T05:25:40.064Z,21.23
2017-05-13T05:26:05.748Z,21.26
2017-05-13T05:26:31.311Z,21.2
2017-05-13T05:26:56.887Z,21.27
2017-05-13T05:27:22.558Z,21.2
2017-05-13T05:27:48.105Z,21.19
2017-05-13T05:28:13.662Z,21.23
2017-05-13T05:28:39.249Z,21.29
2017-05-13T05:29:04.830Z,21.23
2017-05-13T05:29:30.399Z,21.21
2017-05-13T05:29:55.993Z,21.29
2017-05-13T05:30:21.553Z,21.27
2017-05-13T05:30:47.190Z,21.23
2017-05-13T05:31:12.777Z,21.21
2017-05-13T05:31:38.336Z,21.21
2017-05-13T05:32:03.891Z,21.3
2017-05-13T05:32:29.454Z,21.27
2017-05-13T05:32:55.222Z,21.27
2017-05-13T05:33:20.793Z,21.21
2017-05-13T05:33:46.373Z,21.26
2017-05-13T05:34:11.995Z,21.21
2017-05-13T05:34:37.566Z,21.3
2017-05-13T05:35:03.139Z,21.23
2017-05-13T05:35:28.783Z,21.26
2017-05-13T05:35:54.350Z,21.24
2017-05-13T05:36:19.911Z,21.24
2017-05-13T05:36:45.451Z,21.24
2017-05-13T05:37:10.993Z,21.29
2017-05-13T05:37:36.554Z,21.24
2017-05-13T05:38:02.177Z,21.24
2017-05-13T05:38:27.758Z,21.2
2017-05-13T05:38:53.331Z,21.21
2017-05-13T05:39:18.900Z,21.24
2017-05-13T05:39:44.447Z,21.21
2017-05-13T05:40:10.013Z,21.26
2017-05-13T05:40:35.724Z,21.23
2017-05-13T05:41:01.315Z,21.29
2017-05-13T05:41:26.883Z,21.27
2017-05-13T05:41:52.482Z,21.24
2017-05-13T05:42:18.039Z,21.13
2017-05-13T05:42:43.600Z,21.23
2017-05-13T05:43:09.165Z,21.29
2017-05-13T05:43:34.711Z,21.2
2017-05-13T05:44:00.269Z,21.21
2017-05-13T05:44:25.920Z,21.23
2017-05-13T05:44:51.479Z,21.32
2017-05-13T05:45:17.037Z,21.24
2017-05-13T05:45:42.611Z,21.16
2017-05-13T05:46:08.203Z,21.23
2017-05-13T05:46:33.761Z,21.2
2017-05-13T05:46:59.304Z,21.2
2017-05-13T05:47:24.848Z,21.17
2017-05-13T05:47:50.403Z,21.23
2017-05-13T05:48:15.993Z,21.2
2017-05-13T05:48:41.562Z,21.27
2017-05-13T05:49:07.129Z,21.27
2017-05-13T05:49:32.713Z,21.27
2017-05-13T05:49:58.292Z,21.21
2017-05-13T05:50:23.849Z,21.21
2017-05-13T05:50:49.411Z,21.23
2017-05-13T05:51:14.983Z,21.19
2017-05-13T05:51:40.574Z,21.23
2017-05-13T05:52:06.150Z,21.24
2017-05-13T05:52:31.713Z,21.23
2017-05-13T05:52:57.270Z,21.21
2017-05-13T05:53:22.843Z,21.2
2017-05-13T05:53:48.454Z,21.24
2017-05-13T05:54:14.016Z,21.24
2017-05-13T05:54:39.591Z,21.23
2017-05-13T05:55:05.173Z,21.21
2017-05-13T05:55:30.742Z,21.27
2017-05-13T05:55:56.313Z,21.24
2017-05-13T05:56:21.893Z,21.21
2017-05-13T05:56:47.498Z,21.24
2017-05-13T05:57:13.067Z,21.23
2017-05-13T05:57:38.626Z,21.23
2017-05-13T05:58:04.220Z,21.26
2017-05-13T05:58:29.781Z,21.23
2017-05-13T05:58:55.395Z,21.21
2017-05-13T05:59:20.953Z,21.19
2017-05-13T05:59:46.514Z,21.23
2017-05-13T06:00:12.136Z,21.24
2017-05-13T06:00:37.815Z,21.23
2017-05-13T06:01:41.333Z,21.24
2017-05-13T06:02:06.889Z,21.19
2017-05-13T06:02:32.459Z,21.2
2017-05-13T06:02:58.030Z,21.17
2017-05-13T06:03:23.607Z,21.26
2017-05-13T06:03:49.183Z,21.23
2017-05-13T06:04:14.733Z,21.23
2017-05-13T06:04:40.428Z,21.2
2017-05-13T06:05:06.001Z,21.17
2017-05-13T06:05:31.584Z,21.23
2017-05-13T06:05:57.149Z,21.17
2017-05-13T06:06:22.732Z,21.24
2017-05-13T06:06:48.305Z,21.2
2017-05-13T06:07:13.869Z,21.09
2017-05-13T06:07:39.426Z,21.17
2017-05-13T06:08:04.967Z,21.24
2017-05-13T06:08:30.529Z,21.21
2017-05-13T06:08:56.090Z,21.23
2017-05-13T06:09:21.652Z,21.2
2017-05-13T06:09:47.473Z,21.19
2017-05-13T06:10:13.090Z,21.19
2017-05-13T06:10:38.759Z,21.23
2017-05-13T06:11:04.331Z,21.19
2017-05-13T06:11:29.916Z,21.24
2017-05-13T06:11:55.552Z,21.21
2017-05-13T06:12:21.111Z,21.2
2017-05-13T06:12:46.681Z,21.3
2017-05-13T06:13:12.238Z,21.13
2017-05-13T06:13:37.830Z,21.13
2017-05-13T06:14:03.442Z,21.2
2017-05-13T06:14:28.995Z,21.26
2017-05-13T06:14:54.650Z,21.17
2017-05-13T06:15:20.215Z,21.19
2017-05-13T06:15:45.833Z,21.23
2017-05-13T06:16:11.396Z,21.21
2017-05-13T06:16:37.069Z,21.17
2017-05-13T06:17:02.661Z,21.21
2017-05-13T06:17:28.216Z,21.21
2017-05-13T06:17:53.764Z,21.14
2017-05-13T06:18:19.410Z,21.21
2017-05-13T06:18:44.973Z,21.2
2017-05-13T06:19:10.543Z,21.21
2017-05-13T06:19:36.115Z,21.24
2017-05-13T06:20:01.794Z,21.19
2017-05-13T06:20:27.370Z,21.26
2017-05-13T06:20:52.953Z,21.21
2017-05-13T06:21:18.560Z,21.2
2017-05-13T06:21:44.255Z,21.2
2017-05-13T06:22:09.860Z,21.24
2017-05-13T06:22:35.437Z,21.17
2017-05-13T06:23:01.070Z,21.26
2017-05-13T06:23:26.682Z,21.17
2017-05-13T06:23:52.237Z,21.26
2017-05-13T06:24:17.886Z,21.2
2017-05-13T06:24:43.481Z,21.11
2017-05-13T06:25:09.091Z,21.16
2017-05-13T06:25:34.708Z,21.26
2017-05-13T06:26:00.278Z,21.14
2017-05-13T06:26:25.874Z,21.2
2017-05-13T06:26:51.541Z,21.14
2017-05-13T06:27:55.457Z,21.11
2017-05-13T06:28:21.023Z,21.21
2017-05-13T06:28:46.592Z,21.23
2017-05-13T06:29:12.149Z,21.11
2017-05-13T06:29:37.813Z,21.11
2017-05-13T06:30:03.353Z,21.24
2017-05-13T06:30:28.942Z,21.23
2017-05-13T06:30:54.485Z,21.11
2017-05-13T06:31:20.024Z,21.14
2017-05-13T06:31:45.564Z,21.17
2017-05-13T06:32:11.107Z,21.26
2017-05-13T06:32:36.671Z,21.16
2017-05-13T06:33:02.224Z,21.11
2017-05-13T06:33:27.772Z,21.14
2017-05-13T06:33:53.333Z,21.27
2017-05-13T06:34:18.872Z,21.13
2017-05-13T06:34:44.404Z,21.2
2017-05-13T06:35:09.968Z,21.2
2017-05-13T06:35:35.659Z,21.17
2017-05-13T06:36:01.222Z,21.11
2017-05-13T06:36:26.759Z,21.26
2017-05-13T06:36:52.303Z,21.21
2017-05-13T06:37:17.838Z,21.27
2017-05-13T06:37:43.470Z,21.11
2017-05-13T06:38:09.072Z,21.11
2017-05-13T06:38:34.623Z,21.19
2017-05-13T06:39:00.263Z,21.27
2017-05-13T06:39:25.835Z,21.24
2017-05-13T06:39:51.389Z,21.14
2017-05-13T06:40:16.960Z,21.2
2017-05-13T06:40:42.713Z,21.16
2017-05-13T06:41:08.284Z,21.17
2017-05-13T06:41:33.842Z,21.16
2017-05-13T06:41:59.445Z,21.13
2017-05-13T06:42:25.062Z,21.24
2017-05-13T06:42:50.618Z,21.17
2017-05-13T06:43:16.178Z,21.23
2017-05-13T06:44:18.541Z,21.11
2017-05-13T06:46:22.121Z,21.13
2017-05-13T06:46:47.685Z,21.2
2017-05-13T06:47:13.352Z,21.16
2017-05-13T06:47:38.910Z,21.23
2017-05-13T06:48:04.473Z,21.14
2017-05-13T06:48:30.055Z,21.19
2017-05-13T06:48:55.601Z,21.21
2017-05-13T06:49:21.154Z,21.19
2017-05-13T06:49:46.859Z,21.16
2017-05-13T06:50:12.413Z,21.16
2017-05-13T06:50:37.981Z,21.16
2017-05-13T06:51:03.521Z,21.21
2017-05-13T06:51:29.072Z,21.2
2017-05-13T06:51:54.650Z,21.2
2017-05-13T06:52:20.249Z,21.14
2017-05-13T06:52:45.796Z,21.19
2017-05-13T06:53:11.494Z,21.14
2017-05-13T06:53:37.070Z,21.17
2017-05-13T06:54:02.632Z,21.19
2017-05-13T06:54:28.403Z,21.16
2017-05-13T06:54:53.974Z,21.2
2017-05-13T06:55:19.539Z,21.14
2017-05-13T06:55:45.112Z,21.16
2017-05-13T06:56:10.789Z,21.16
2017-05-13T06:56:36.472Z,21.19
2017-05-13T06:57:02.015Z,21.14
2017-05-13T06:57:27.758Z,21.14
2017-05-13T06:57:53.362Z,21.19
2017-05-13T06:58:18.910Z,21.14
2017-05-13T06:58:44.471Z,21.13
2017-05-13T06:59:10.025Z,21.16
2017-05-13T06:59:35.667Z,21.14
2017-05-13T07:00:01.231Z,21.16
2017-05-13T07:00:26.796Z,21.19
2017-05-13T07:00:52.480Z,21.16
2017-05-13T07:01:18.137Z,21.19
2017-05-13T07:01:43.691Z,21.19
2017-05-13T07:02:09.245Z,21.16
2017-05-13T07:02:34.820Z,21.2
2017-05-13T07:03:00.390Z,21.17
2017-05-13T07:03:25.953Z,21.17
2017-05-13T07:03:51.510Z,21.16
2017-05-13T07:04:17.064Z,21.13
2017-05-13T07:04:42.663Z,21.16
2017-05-13T07:05:08.220Z,21.2
2017-05-13T07:05:33.860Z,21.16
2017-05-13T07:05:59.540Z,21.2
2017-05-13T07:06:25.123Z,21.17
2017-05-13T07:06:50.694Z,21.14
2017-05-13T07:07:16.331Z,21.14
2017-05-13T07:07:41.899Z,21.19
2017-05-13T07:08:07.462Z,21.17
2017-05-13T07:08:33.152Z,21.24
2017-05-13T07:08:58.907Z,21.17
2017-05-13T07:09:24.550Z,21.17
2017-05-13T07:09:50.154Z,21.14
2017-05-13T07:10:15.690Z,21.19
2017-05-13T07:10:41.247Z,21.17
2017-05-13T07:11:06.830Z,21.2
2017-05-13T07:11:32.391Z,21.2
2017-05-13T07:11:58.043Z,21.2
2017-05-13T07:12:23.609Z,21.14
2017-05-13T07:12:49.171Z,21.14
2017-05-13T07:13:14.752Z,21.21
2017-05-13T07:13:40.307Z,21.17
2017-05-13T07:14:05.864Z,21.06
2017-05-13T07:14:31.527Z,21.21
2017-05-13T07:14:57.142Z,21.13
2017-05-13T07:15:22.704Z,21.19
2017-05-13T07:15:48.264Z,21.14
2017-05-13T07:16:13.833Z,21.09
2017-05-13T07:16:39.412Z,21.14
2017-05-13T07:17:04.964Z,21.2
2017-05-13T07:17:30.530Z,21.14
2017-05-13T07:17:56.109Z,21.16
2017-05-13T07:18:21.700Z,21.06
2017-05-13T07:18:47.306Z,21.11
2017-05-13T07:19:12.881Z,21.14
2017-05-13T07:19:38.514Z,21.09
2017-05-13T07:20:04.206Z,21.09
2017-05-13T07:20:29.768Z,21.09
2017-05-13T07:20:55.330Z,21.09
2017-05-13T07:21:20.894Z,21.13
2017-05-13T07:21:46.451Z,21.05
2017-05-13T07:22:12.000Z,21.08
2017-05-13T07:22:37.599Z,21.14
2017-05-13T07:23:03.155Z,21.08
2017-05-13T07:23:28.813Z,21.08
2017-05-13T07:23:54.469Z,21.13
2017-05-13T07:24:20.039Z,21.09
2017-05-13T07:24:45.603Z,21.14
2017-05-13T07:25:11.185Z,21.14
2017-05-13T07:25:36.765Z,21.17
2017-05-13T07:26:02.313Z,21.06
2017-05-13T07:26:27.930Z,21.08
2017-05-13T07:26:53.554Z,21.08
2017-05-13T07:27:19.112Z,21.19
2017-05-13T07:27:44.734Z,21.06
2017-05-13T07:28:10.295Z,21.08
2017-05-13T07:28:35.851Z,21.13
2017-05-13T07:29:01.413Z,21.16
2017-05-13T07:29:27.064Z,21.09
2017-05-13T07:29:52.611Z,21.17
2017-05-13T07:30:18.189Z,21.19
2017-05-13T07:30:43.759Z,21.08
2017-05-13T07:31:09.306Z,21.19
2017-05-13T07:31:35.014Z,21.19
2017-05-13T07:32:00.605Z,21.14
2017-05-13T07:32:26.165Z,21.13
2017-05-13T07:32:51.734Z,21.11
2017-05-13T07:33:17.315Z,21.17
2017-05-13T07:33:42.859Z,21.11
2017-05-13T07:34:08.529Z,21.14
2017-05-13T07:34:34.137Z,21.14
2017-05-13T07:34:59.706Z,21.09
2017-05-13T07:35:25.290Z,21.19
2017-05-13T07:35:50.880Z,21.14
2017-05-13T07:36:16.442Z,21.16
2017-05-13T07:36:42.033Z,21.09
2017-05-13T07:37:07.670Z,21.06
2017-05-13T07:37:33.248Z,21.16
2017-05-13T07:37:58.831Z,21.17
2017-05-13T07:39:07.450Z,21.17
2017-05-13T07:39:33.017Z,21.09
2017-05-13T07:41:48.490Z,21.13
2017-05-13T07:42:14.060Z,21.17
2017-05-13T07:42:39.628Z,21.19
2017-05-13T07:43:05.190Z,21.13
2017-05-13T07:43:30.769Z,21.17
2017-05-13T07:43:56.324Z,21.17
2017-05-13T07:44:21.888Z,21.09
2017-05-13T07:44:47.553Z,21.2
2017-05-13T07:45:13.113Z,21.19
2017-05-13T07:45:38.681Z,21.14
2017-05-13T07:46:04.255Z,21.19
2017-05-13T07:46:30.852Z,21.2
2017-05-13T07:46:55.470Z,21.17
2017-05-13T07:47:21.041Z,21.16
2017-05-13T07:47:46.755Z,21.19
2017-05-13T07:48:12.299Z,21.21
2017-05-13T07:48:37.862Z,21.16
2017-05-13T07:49:03.423Z,21.17
2017-05-13T07:49:28.975Z,21.08
2017-05-13T07:49:54.548Z,21.17
2017-05-13T07:50:20.134Z,21.14
2017-05-13T07:50:45.674Z,21.19
2017-05-13T07:51:11.262Z,21.13
2017-05-13T07:51:36.928Z,21.14
2017-05-13T07:52:45.520Z,21.19
2017-05-13T07:53:11.110Z,21.06
2017-05-13T07:55:18.218Z,21.13
2017-05-13T07:55:43.830Z,21.19
2017-05-13T07:56:09.363Z,21.16
2017-05-13T07:56:34.938Z,21.17
2017-05-13T07:57:00.493Z,21.13
2017-05-13T07:57:26.141Z,21.14
2017-05-13T07:57:51.702Z,21.17
2017-05-13T07:58:17.241Z,21.17
2017-05-13T07:58:42.800Z,21.19
2017-05-13T07:59:08.371Z,21.23
2017-05-13T07:59:33.944Z,21.19
2017-05-13T07:59:59.534Z,21.13
2017-05-13T08:00:25.097Z,21.17
2017-05-13T08:00:50.683Z,21.19
2017-05-13T08:01:16.283Z,21.19
2017-05-13T08:01:41.842Z,21.17
2017-05-13T08:02:07.410Z,21.13
2017-05-13T08:02:32.985Z,21.17
2017-05-13T08:02:58.576Z,21.17
2017-05-13T08:03:24.171Z,21.19
2017-05-13T08:03:49.724Z,21.2
2017-05-13T08:04:15.269Z,21.11
2017-05-13T08:04:40.819Z,21.21
2017-05-13T08:05:06.391Z,21.2
2017-05-13T08:05:32.023Z,21.14
2017-05-13T08:05:57.579Z,21.14
2017-05-13T08:06:23.154Z,21.16
2017-05-13T08:07:31.965Z,21.21
2017-05-13T08:07:57.549Z,21.19
2017-05-13T08:08:23.128Z,21.17
2017-05-13T08:08:48.705Z,21.23
2017-05-13T08:09:14.272Z,21.21
2017-05-13T08:09:39.836Z,21.19
2017-05-13T08:10:05.391Z,21.17
2017-05-13T08:10:30.981Z,21.17
2017-05-13T08:10:56.574Z,21.21
2017-05-13T08:11:22.170Z,21.2
2017-05-13T08:11:47.702Z,21.23
2017-05-13T08:12:13.379Z,21.13
2017-05-13T08:12:38.997Z,21.19
2017-05-13T08:13:04.545Z,21.2
2017-05-13T08:13:30.090Z,21.2
2017-05-13T08:13:55.813Z,21.14
2017-05-13T08:14:21.366Z,21.2
2017-05-13T08:14:46.951Z,21.17
2017-05-13T08:15:12.489Z,21.08
2017-05-13T08:15:38.086Z,21.17
2017-05-13T08:16:03.657Z,21.19
2017-05-13T08:16:29.170Z,21.2
2017-05-13T08:16:54.709Z,21.2
2017-05-13T08:17:20.284Z,21.09
2017-05-13T08:17:45.868Z,21.16
2017-05-13T08:18:11.452Z,21.14
2017-05-13T08:18:37.029Z,21.16
2017-05-13T08:19:02.582Z,21.2
2017-05-13T08:19:28.132Z,21.17
2017-05-13T08:19:53.827Z,21.17
2017-05-13T08:20:19.399Z,21.17
2017-05-13T08:20:45.019Z,21.2
2017-05-13T08:21:10.584Z,21.13
2017-05-13T08:21:36.121Z,21.19
2017-05-13T08:22:01.757Z,21.11
2017-05-13T08:22:27.320Z,21.16
2017-05-13T08:22:52.888Z,21.16
2017-05-13T08:23:18.446Z,21.13
2017-05-13T08:23:44.011Z,21.14
2017-05-13T08:24:09.573Z,21.21
2017-05-13T08:24:35.134Z,21.13
2017-05-13T08:25:00.687Z,21.23
2017-05-13T08:25:26.287Z,21.21
2017-05-13T08:25:51.848Z,21.16
2017-05-13T08:26:17.410Z,21.19
2017-05-13T08:26:42.979Z,21.2
2017-05-13T08:27:08.531Z,21.13
2017-05-13T08:27:34.091Z,21.17
2017-05-13T08:27:59.637Z,21.16
2017-05-13T08:28:25.214Z,21.14
2017-05-13T08:28:50.761Z,21.17
2017-05-13T08:29:16.379Z,21.14
2017-05-13T08:29:41.939Z,21.21
2017-05-13T08:30:07.638Z,21.21
2017-05-13T08:30:33.243Z,21.17
2017-05-13T08:30:58.799Z,21.16
2017-05-13T08:31:24.416Z,21.23
2017-05-13T08:31:49.977Z,21.09
2017-05-13T08:32:15.531Z,21.17
2017-05-13T08:32:41.086Z,21.23
2017-05-13T08:33:06.809Z,21.21
2017-05-13T08:33:32.382Z,21.2
2017-05-13T08:33:57.949Z,21.23
2017-05-13T08:34:23.519Z,21.14
2017-05-13T08:34:49.081Z,21.2
2017-05-13T08:35:14.620Z,21.19
2017-05-13T08:35:40.217Z,21.23
2017-05-13T08:36:05.773Z,21.24
2017-05-13T08:36:31.328Z,21.19
2017-05-13T08:36:56.901Z,21.27
2017-05-13T08:37:22.452Z,21.27
2017-05-13T08:37:48.009Z,21.2
2017-05-13T08:38:13.558Z,21.14
2017-05-13T08:38:39.139Z,21.23
2017-05-13T08:39:04.852Z,21.11
2017-05-13T08:39:30.400Z,21.21
2017-05-13T08:39:55.982Z,21.11
2017-05-13T08:40:22.210Z,21.21
2017-05-13T08:40:47.776Z,21.24
2017-05-13T08:41:13.391Z,21.16
2017-05-13T08:41:39.204Z,21.23
2017-05-13T08:42:05.030Z,21.14
2017-05-13T08:42:30.528Z,21.26
2017-05-13T08:42:56.160Z,21.11
2017-05-13T08:43:21.716Z,21.23
2017-05-13T08:43:47.312Z,21.11
2017-05-13T08:44:12.874Z,21.16
2017-05-13T08:44:38.431Z,21.2
2017-05-13T08:45:04.004Z,21.17
2017-05-13T08:45:29.587Z,21.21
2017-05-13T08:45:55.183Z,21.11
2017-05-13T08:46:20.747Z,21.23
2017-05-13T08:46:46.604Z,21.11
2017-05-13T08:47:40.018Z,21.2
2017-05-13T08:48:05.580Z,21.19
2017-05-13T08:48:31.156Z,21.2
2017-05-13T08:48:56.736Z,21.23
2017-05-13T08:49:22.313Z,21.17
2017-05-13T08:49:47.888Z,21.21
2017-05-13T08:50:13.496Z,21.21
2017-05-13T08:50:39.069Z,21.23
2017-05-13T08:51:04.646Z,21.19
2017-05-13T08:51:30.197Z,21.19
2017-05-13T08:51:55.757Z,21.26
2017-05-13T08:52:21.350Z,21.17
2017-05-13T08:52:46.981Z,21.14
2017-05-13T08:53:12.541Z,21.2
2017-05-13T08:53:38.178Z,21.23
2017-05-13T08:54:03.787Z,21.11
2017-05-13T08:54:29.357Z,21.24
2017-05-13T08:54:54.926Z,21.2
2017-05-13T08:55:20.512Z,21.19
2017-05-13T08:55:46.210Z,21.24
2017-05-13T08:56:45.018Z,21.19
2017-05-13T08:57:10.606Z,21.19
2017-05-13T08:57:36.220Z,21.21
2017-05-13T08:58:01.822Z,21.29
2017-05-13T08:58:27.387Z,21.21
2017-05-13T08:58:52.971Z,21.21
2017-05-13T08:59:18.541Z,21.26
2017-05-13T08:59:44.178Z,21.24
2017-05-13T09:00:09.734Z,21.19
2017-05-13T09:00:35.356Z,21.19
2017-05-13T09:01:00.930Z,21.24
2017-05-13T09:01:26.486Z,21.24
2017-05-13T09:01:52.272Z,21.24
2017-05-13T09:02:17.823Z,21.26
2017-05-13T09:02:43.385Z,21.23
2017-05-13T09:03:08.957Z,21.2
2017-05-13T09:04:02.270Z,21.24
2017-05-13T09:04:27.857Z,21.24
2017-05-13T09:04:53.399Z,21.24
2017-05-13T09:05:18.945Z,21.23
2017-05-13T09:05:44.540Z,21.2
2017-05-13T09:06:10.093Z,21.24
2017-05-13T09:06:35.787Z,21.24
2017-05-13T09:07:01.399Z,21.26
2017-05-13T09:07:26.962Z,21.2
2017-05-13T09:07:52.653Z,21.23
2017-05-13T09:08:18.296Z,21.26
2017-05-13T09:08:44.003Z,21.26
2017-05-13T09:09:09.578Z,21.26
2017-05-13T09:09:35.151Z,21.27
2017-05-13T09:10:00.811Z,21.32
2017-05-13T09:10:26.427Z,21.26
2017-05-13T09:10:51.988Z,21.24
2017-05-13T09:11:17.538Z,21.21
2017-05-13T09:11:43.107Z,21.24
2017-05-13T09:12:08.661Z,21.24
2017-05-13T09:12:34.201Z,21.35
2017-05-13T09:12:59.791Z,21.32
2017-05-13T09:13:25.446Z,21.24
2017-05-13T09:13:50.992Z,21.3
2017-05-13T09:14:16.558Z,21.3
2017-05-13T09:14:42.328Z,21.29
2017-05-13T09:15:07.878Z,21.3
2017-05-13T09:15:33.418Z,21.34
2017-05-13T09:15:58.979Z,21.3
2017-05-13T09:16:24.588Z,21.35
2017-05-13T09:16:50.177Z,21.27
2017-05-13T09:17:15.707Z,21.27
2017-05-13T09:17:41.252Z,21.34
2017-05-13T09:18:06.919Z,21.32
2017-05-13T09:18:32.486Z,21.35
2017-05-13T09:18:58.058Z,21.3
2017-05-13T09:19:23.608Z,21.35
2017-05-13T09:19:49.168Z,21.3
2017-05-13T09:20:14.767Z,21.3
2017-05-13T09:20:40.353Z,21.35
2017-05-13T09:21:05.905Z,21.29
2017-05-13T09:21:31.578Z,21.3
2017-05-13T09:21:57.358Z,21.29
2017-05-13T09:22:22.919Z,21.26
2017-05-13T09:22:48.487Z,21.32
2017-05-13T09:23:14.048Z,21.3
2017-05-13T09:23:39.602Z,21.35
2017-05-13T09:24:05.140Z,21.27
2017-05-13T09:24:30.770Z,21.34
2017-05-13T09:24:56.332Z,21.29
2017-05-13T09:25:21.994Z,21.34
2017-05-13T09:25:47.886Z,21.29
2017-05-13T09:26:13.442Z,21.29
2017-05-13T09:26:39.025Z,21.24
2017-05-13T09:27:04.605Z,21.32
2017-05-13T09:27:30.180Z,21.32
2017-05-13T09:27:56.404Z,21.3
2017-05-13T09:28:21.753Z,21.32
2017-05-13T09:28:47.339Z,21.26
2017-05-13T09:29:12.941Z,21.29
2017-05-13T09:29:38.514Z,21.27
2017-05-13T09:30:04.089Z,21.29
2017-05-13T09:30:29.651Z,21.3
2017-05-13T09:30:55.204Z,21.34
2017-05-13T09:31:20.809Z,21.26
2017-05-13T09:31:46.398Z,21.3
2017-05-13T09:32:11.998Z,21.26
2017-05-13T09:32:37.541Z,21.27
2017-05-13T09:33:03.246Z,21.3
2017-05-13T09:33:28.809Z,21.29
2017-05-13T09:33:54.386Z,21.3
2017-05-13T09:34:20.105Z,21.35
2017-05-13T09:34:45.671Z,21.29
2017-05-13T09:35:11.306Z,21.26
2017-05-13T09:35:36.952Z,21.34
2017-05-13T09:36:02.524Z,21.27
2017-05-13T09:36:28.084Z,21.32
2017-05-13T09:36:53.781Z,21.26
2017-05-13T09:37:19.345Z,21.3
2017-05-13T09:37:44.906Z,21.3
2017-05-13T09:38:10.516Z,21.27
2017-05-13T09:38:36.085Z,21.29
2017-05-13T09:39:01.646Z,21.3
2017-05-13T09:39:27.221Z,21.34
2017-05-13T09:39:53.026Z,21.27
2017-05-13T09:40:18.629Z,21.38
2017-05-13T09:40:44.212Z,21.27
2017-05-13T09:41:09.765Z,21.34
2017-05-13T09:41:35.316Z,21.29
2017-05-13T09:42:00.894Z,21.29
2017-05-13T09:42:26.549Z,21.26
2017-05-13T09:42:52.159Z,21.27
2017-05-13T09:43:17.736Z,21.32
2017-05-13T09:43:43.347Z,21.29